sensor_id;sensor_type;location;lat;lon;timestamp;pressure;altitude;pressure_sealevel;temperature;humidity
22000;BME280;11164;48.818;2.322;2023-05-16T00:01:10;101063.28;;;12.72;41.58
22000;BME280;11164;48.818;2.322;2023-05-16T00:03:36;101073.22;;;12.59;42.01
22000;BME280;11164;48.818;2.322;2023-05-16T00:06:02;101074.34;;;12.36;42.49
22000;BME280;11164;48.818;2.322;2023-05-16T00:08:29;101077.25;;;12.06;42.98
22000;BME280;11164;48.818;2.322;2023-05-16T00:10:54;101074.88;;;12.25;42.49
22000;BME280;11164;48.818;2.322;2023-05-16T00:13:20;101072.66;;;12.35;42.22
22000;BME280;11164;48.818;2.322;2023-05-16T00:15:49;101073.16;;;12.52;42.00
22000;BME280;11164;48.818;2.322;2023-05-16T00:18:16;101072.63;;;12.70;41.41
22000;BME280;11164;48.818;2.322;2023-05-16T00:20:42;101072.59;;;12.22;42.41
22000;BME280;11164;48.818;2.322;2023-05-16T00:23:07;101071.09;;;12.19;42.56
22000;BME280;11164;48.818;2.322;2023-05-16T00:25:32;101080.84;;;12.13;42.69
22000;BME280;11164;48.818;2.322;2023-05-16T00:27:58;101076.06;;;12.15;42.52
22000;BME280;11164;48.818;2.322;2023-05-16T00:30:23;101078.13;;;12.13;42.48
22000;BME280;11164;48.818;2.322;2023-05-16T00:32:48;101066.31;;;12.14;42.24
22000;BME280;11164;48.818;2.322;2023-05-16T00:35:14;101062.56;;;11.87;42.83
22000;BME280;11164;48.818;2.322;2023-05-16T00:37:39;101067.66;;;12.04;42.66
22000;BME280;11164;48.818;2.322;2023-05-16T00:40:05;101075.13;;;12.30;41.95
22000;BME280;11164;48.818;2.322;2023-05-16T00:42:31;101065.13;;;11.95;42.64
22000;BME280;11164;48.818;2.322;2023-05-16T00:44:57;101070.13;;;11.98;42.53
22000;BME280;11164;48.818;2.322;2023-05-16T00:47:22;101075.09;;;11.95;42.44
22000;BME280;11164;48.818;2.322;2023-05-16T00:49:47;101060.16;;;11.99;42.29
22000;BME280;11164;48.818;2.322;2023-05-16T00:52:13;101060.78;;;12.01;42.24
22000;BME280;11164;48.818;2.322;2023-05-16T00:54:38;101062.00;;;11.98;42.20
22000;BME280;11164;48.818;2.322;2023-05-16T00:57:04;101058.38;;;12.13;42.00
22000;BME280;11164;48.818;2.322;2023-05-16T00:59:31;101071.34;;;11.96;42.18
22000;BME280;11164;48.818;2.322;2023-05-16T01:01:56;101061.94;;;11.92;42.32
22000;BME280;11164;48.818;2.322;2023-05-16T01:04:22;101069.69;;;11.95;42.36
22000;BME280;11164;48.818;2.322;2023-05-16T01:06:47;101071.09;;;12.19;41.74
22000;BME280;11164;48.818;2.322;2023-05-16T01:09:13;101076.03;;;11.66;42.66
22000;BME280;11164;48.818;2.322;2023-05-16T01:14:45;101079.78;;;11.86;42.29
22000;BME280;11164;48.818;2.322;2023-05-16T01:20:27;101067.03;;;12.02;42.29
22000;BME280;11164;48.818;2.322;2023-05-16T01:23:18;101068.34;;;11.84;42.64
22000;BME280;11164;48.818;2.322;2023-05-16T01:25:55;101081.88;;;11.62;42.95
22000;BME280;11164;48.818;2.322;2023-05-16T01:28:22;101082.66;;;11.78;43.21
22000;BME280;11164;48.818;2.322;2023-05-16T01:30:49;101075.78;;;11.60;42.64
22000;BME280;11164;48.818;2.322;2023-05-16T01:33:15;101078.56;;;11.67;42.39
22000;BME280;11164;48.818;2.322;2023-05-16T01:39:26;101082.31;;;11.66;43.23
22000;BME280;11164;48.818;2.322;2023-05-16T01:42:00;101084.03;;;11.74;42.35
22000;BME280;11164;48.818;2.322;2023-05-16T01:47:23;101083.81;;;11.97;41.61
22000;BME280;11164;48.818;2.322;2023-05-16T01:50:08;101085.94;;;12.02;41.89
22000;BME280;11164;48.818;2.322;2023-05-16T01:52:40;101083.91;;;11.17;43.57
22000;BME280;11164;48.818;2.322;2023-05-16T01:55:10;101078.06;;;11.35;43.05
22000;BME280;11164;48.818;2.322;2023-05-16T01:57:41;101090.69;;;11.13;43.60
22000;BME280;11164;48.818;2.322;2023-05-16T02:00:07;101079.78;;;11.43;42.53
22000;BME280;11164;48.818;2.322;2023-05-16T02:02:33;101098.81;;;11.35;42.79
22000;BME280;11164;48.818;2.322;2023-05-16T02:04:58;101062.69;;;11.14;42.84
22000;BME280;11164;48.818;2.322;2023-05-16T02:07:23;101090.38;;;11.23;43.06
22000;BME280;11164;48.818;2.322;2023-05-16T02:09:49;101095.78;;;11.44;42.71
22000;BME280;11164;48.818;2.322;2023-05-16T02:12:15;101090.13;;;11.18;42.95
22000;BME280;11164;48.818;2.322;2023-05-16T02:14:40;101104.06;;;11.21;43.20
22000;BME280;11164;48.818;2.322;2023-05-16T02:17:06;101105.81;;;11.29;43.08
22000;BME280;11164;48.818;2.322;2023-05-16T02:19:31;101104.78;;;11.30;42.91
22000;BME280;11164;48.818;2.322;2023-05-16T02:21:56;101097.06;;;11.27;42.79
22000;BME280;11164;48.818;2.322;2023-05-16T02:24:22;101103.34;;;11.13;43.24
22000;BME280;11164;48.818;2.322;2023-05-16T02:26:47;101104.34;;;11.27;43.08
22000;BME280;11164;48.818;2.322;2023-05-16T02:29:13;101090.59;;;11.43;42.49
22000;BME280;11164;48.818;2.322;2023-05-16T02:31:39;101105.91;;;11.57;42.20
22000;BME280;11164;48.818;2.322;2023-05-16T02:34:06;101094.78;;;11.46;42.34
22000;BME280;11164;48.818;2.322;2023-05-16T02:36:32;101100.94;;;11.39;42.60
22000;BME280;11164;48.818;2.322;2023-05-16T02:39:00;101102.91;;;11.31;42.85
22000;BME280;11164;48.818;2.322;2023-05-16T02:41:26;101103.25;;;11.42;42.72
22000;BME280;11164;48.818;2.322;2023-05-16T02:43:51;101086.78;;;11.37;42.89
22000;BME280;11164;48.818;2.322;2023-05-16T02:46:25;101095.94;;;11.58;42.48
22000;BME280;11164;48.818;2.322;2023-05-16T02:48:51;101110.28;;;11.37;42.77
22000;BME280;11164;48.818;2.322;2023-05-16T02:51:19;101097.31;;;11.11;43.30
22000;BME280;11164;48.818;2.322;2023-05-16T02:53:44;101103.97;;;11.30;42.95
22000;BME280;11164;48.818;2.322;2023-05-16T02:56:10;101106.78;;;11.21;42.98
22000;BME280;11164;48.818;2.322;2023-05-16T02:58:35;101107.22;;;11.25;42.94
22000;BME280;11164;48.818;2.322;2023-05-16T03:01:01;101100.41;;;11.29;42.98
22000;BME280;11164;48.818;2.322;2023-05-16T03:03:26;101100.56;;;11.64;42.14
22000;BME280;11164;48.818;2.322;2023-05-16T03:05:51;101116.63;;;11.51;42.32
22000;BME280;11164;48.818;2.322;2023-05-16T03:08:17;101113.88;;;11.66;41.87
22000;BME280;11164;48.818;2.322;2023-05-16T03:10:42;101115.03;;;11.56;41.96
22000;BME280;11164;48.818;2.322;2023-05-16T03:13:08;101108.81;;;11.19;43.00
22000;BME280;11164;48.818;2.322;2023-05-16T03:15:33;101122.41;;;11.26;42.62
22000;BME280;11164;48.818;2.322;2023-05-16T03:17:58;101122.88;;;11.15;42.83
22000;BME280;11164;48.818;2.322;2023-05-16T03:20:24;101123.06;;;11.13;43.00
22000;BME280;11164;48.818;2.322;2023-05-16T03:22:50;101120.19;;;11.15;42.78
22000;BME280;11164;48.818;2.322;2023-05-16T03:25:15;101122.16;;;10.91;43.23
22000;BME280;11164;48.818;2.322;2023-05-16T03:27:40;101121.44;;;10.97;43.04
22000;BME280;11164;48.818;2.322;2023-05-16T03:30:06;101131.03;;;11.36;42.43
22000;BME280;11164;48.818;2.322;2023-05-16T03:32:32;101130.97;;;11.51;42.18
22000;BME280;11164;48.818;2.322;2023-05-16T03:34:58;101136.75;;;11.48;41.84
22000;BME280;11164;48.818;2.322;2023-05-16T03:37:23;101146.38;;;11.36;42.37
22000;BME280;11164;48.818;2.322;2023-05-16T03:39:50;101133.72;;;11.00;43.00
22000;BME280;11164;48.818;2.322;2023-05-16T03:42:15;101145.16;;;11.02;42.99
22000;BME280;11164;48.818;2.322;2023-05-16T03:44:42;101135.78;;;10.83;43.23
22000;BME280;11164;48.818;2.322;2023-05-16T03:47:08;101147.94;;;10.94;43.08
22000;BME280;11164;48.818;2.322;2023-05-16T03:49:33;101147.03;;;10.86;43.34
22000;BME280;11164;48.818;2.322;2023-05-16T03:51:58;101150.19;;;10.75;43.49
22000;BME280;11164;48.818;2.322;2023-05-16T03:54:24;101148.16;;;10.62;43.87
22000;BME280;11164;48.818;2.322;2023-05-16T03:56:49;101145.50;;;10.54;44.05
22000;BME280;11164;48.818;2.322;2023-05-16T03:59:14;101149.91;;;10.85;43.32
22000;BME280;11164;48.818;2.322;2023-05-16T04:01:41;101151.34;;;10.58;43.88
22000;BME280;11164;48.818;2.322;2023-05-16T04:04:06;101150.44;;;10.50;44.01
22000;BME280;11164;48.818;2.322;2023-05-16T04:06:31;101157.34;;;10.68;43.71
22000;BME280;11164;48.818;2.322;2023-05-16T04:08:58;101159.75;;;10.63;43.44
22000;BME280;11164;48.818;2.322;2023-05-16T04:11:23;101160.56;;;10.48;44.36
22000;BME280;11164;48.818;2.322;2023-05-16T04:13:51;101156.75;;;10.58;43.94
22000;BME280;11164;48.818;2.322;2023-05-16T04:16:18;101153.59;;;10.54;43.96
22000;BME280;11164;48.818;2.322;2023-05-16T04:18:43;101170.09;;;10.59;43.64
22000;BME280;11164;48.818;2.322;2023-05-16T04:21:08;101170.38;;;10.64;43.59
22000;BME280;11164;48.818;2.322;2023-05-16T04:23:39;101167.66;;;10.49;44.10
22000;BME280;11164;48.818;2.322;2023-05-16T04:26:04;101170.38;;;10.64;43.73
22000;BME280;11164;48.818;2.322;2023-05-16T04:28:30;101171.00;;;10.66;43.79
22000;BME280;11164;48.818;2.322;2023-05-16T04:30:55;101166.25;;;10.54;43.86
22000;BME280;11164;48.818;2.322;2023-05-16T04:33:20;101170.72;;;10.61;43.80
22000;BME280;11164;48.818;2.322;2023-05-16T04:35:46;101175.16;;;10.54;43.72
22000;BME280;11164;48.818;2.322;2023-05-16T04:38:12;101181.00;;;10.58;43.93
22000;BME280;11164;48.818;2.322;2023-05-16T04:40:37;101161.50;;;10.56;43.92
22000;BME280;11164;48.818;2.322;2023-05-16T04:43:04;101183.13;;;10.71;43.76
22000;BME280;11164;48.818;2.322;2023-05-16T04:45:30;101184.88;;;10.63;43.79
22000;BME280;11164;48.818;2.322;2023-05-16T04:47:56;101188.25;;;10.95;43.39
22000;BME280;11164;48.818;2.322;2023-05-16T04:50:21;101197.91;;;11.19;43.05
22000;BME280;11164;48.818;2.322;2023-05-16T04:52:47;101191.66;;;11.19;43.00
22000;BME280;11164;48.818;2.322;2023-05-16T04:55:12;101187.41;;;10.95;43.72
22000;BME280;11164;48.818;2.322;2023-05-16T04:57:37;101197.06;;;11.04;43.57
22000;BME280;11164;48.818;2.322;2023-05-16T05:00:05;101197.91;;;11.04;43.75
22000;BME280;11164;48.818;2.322;2023-05-16T05:02:32;101185.59;;;11.17;43.37
22000;BME280;11164;48.818;2.322;2023-05-16T05:04:57;101201.28;;;11.43;43.05
22000;BME280;11164;48.818;2.322;2023-05-16T05:07:23;101206.41;;;11.38;43.07
22000;BME280;11164;48.818;2.322;2023-05-16T05:09:52;101203.88;;;11.51;43.06
22000;BME280;11164;48.818;2.322;2023-05-16T05:12:20;101202.53;;;11.40;43.30
22000;BME280;11164;48.818;2.322;2023-05-16T05:14:45;101213.63;;;11.67;42.70
22000;BME280;11164;48.818;2.322;2023-05-16T05:17:11;101201.72;;;11.76;42.18
22000;BME280;11164;48.818;2.322;2023-05-16T05:19:36;101203.38;;;11.77;42.76
22000;BME280;11164;48.818;2.322;2023-05-16T05:22:01;101204.88;;;11.65;43.14
22000;BME280;11164;48.818;2.322;2023-05-16T05:24:27;101206.13;;;11.48;43.45
22000;BME280;11164;48.818;2.322;2023-05-16T05:26:52;101213.75;;;11.95;42.74
22000;BME280;11164;48.818;2.322;2023-05-16T05:29:17;101226.41;;;11.95;42.86
22000;BME280;11164;48.818;2.322;2023-05-16T05:31:43;101211.06;;;11.95;42.88
22000;BME280;11164;48.818;2.322;2023-05-16T05:34:08;101223.91;;;12.15;42.85
22000;BME280;11164;48.818;2.322;2023-05-16T05:36:34;101222.22;;;12.35;42.17
22000;BME280;11164;48.818;2.322;2023-05-16T05:38:59;101227.00;;;12.62;41.95
22000;BME280;11164;48.818;2.322;2023-05-16T05:41:24;101222.03;;;12.65;41.91
22000;BME280;11164;48.818;2.322;2023-05-16T05:43:51;101218.78;;;12.48;42.41
22000;BME280;11164;48.818;2.322;2023-05-16T05:46:16;101206.44;;;12.39;42.61
22000;BME280;11164;48.818;2.322;2023-05-16T05:48:42;101208.19;;;12.82;41.74
22000;BME280;11164;48.818;2.322;2023-05-16T05:51:07;101216.94;;;12.77;42.00
22000;BME280;11164;48.818;2.322;2023-05-16T05:53:33;101227.22;;;12.38;42.79
22000;BME280;11164;48.818;2.322;2023-05-16T05:55:58;101219.63;;;12.49;42.42
22000;BME280;11164;48.818;2.322;2023-05-16T05:58:24;101224.38;;;12.47;42.74
22000;BME280;11164;48.818;2.322;2023-05-16T06:00:49;101226.53;;;12.30;42.97
22000;BME280;11164;48.818;2.322;2023-05-16T06:03:15;101230.34;;;12.14;43.28
22000;BME280;11164;48.818;2.322;2023-05-16T06:05:40;101223.44;;;12.61;42.39
22000;BME280;11164;48.818;2.322;2023-05-16T06:08:06;101231.19;;;13.27;41.44
22000;BME280;11164;48.818;2.322;2023-05-16T06:10:32;101223.81;;;13.63;40.87
22000;BME280;11164;48.818;2.322;2023-05-16T06:12:58;101223.97;;;13.48;41.23
22000;BME280;11164;48.818;2.322;2023-05-16T06:15:24;101225.16;;;13.32;41.47
22000;BME280;11164;48.818;2.322;2023-05-16T06:17:50;101228.78;;;13.53;41.18
22000;BME280;11164;48.818;2.322;2023-05-16T06:20:15;101235.03;;;13.11;41.85
22000;BME280;11164;48.818;2.322;2023-05-16T06:22:42;101241.16;;;13.27;41.68
22000;BME280;11164;48.818;2.322;2023-05-16T06:25:08;101236.09;;;13.10;42.08
22000;BME280;11164;48.818;2.322;2023-05-16T06:27:33;101236.38;;;12.87;42.36
22000;BME280;11164;48.818;2.322;2023-05-16T06:29:58;101235.69;;;13.62;40.96
22000;BME280;11164;48.818;2.322;2023-05-16T06:32:24;101238.56;;;14.02;40.09
22000;BME280;11164;48.818;2.322;2023-05-16T06:34:49;101236.28;;;13.50;41.01
22000;BME280;11164;48.818;2.322;2023-05-16T06:37:15;101248.44;;;13.68;41.27
22000;BME280;11164;48.818;2.322;2023-05-16T06:39:40;101229.75;;;13.93;40.06
22000;BME280;11164;48.818;2.322;2023-05-16T06:42:05;101243.34;;;14.06;40.00
22000;BME280;11164;48.818;2.322;2023-05-16T06:44:31;101242.78;;;13.63;40.70
22000;BME280;11164;48.818;2.322;2023-05-16T06:46:56;101259.66;;;13.52;41.02
22000;BME280;11164;48.818;2.322;2023-05-16T06:49:21;101238.97;;;13.02;41.57
22000;BME280;11164;48.818;2.322;2023-05-16T06:51:47;101253.09;;;13.39;40.97
22000;BME280;11164;48.818;2.322;2023-05-16T06:54:14;101249.00;;;13.50;40.69
22000;BME280;11164;48.818;2.322;2023-05-16T06:56:40;101263.53;;;13.91;40.02
22000;BME280;11164;48.818;2.322;2023-05-16T06:59:05;101264.31;;;13.84;40.40
22000;BME280;11164;48.818;2.322;2023-05-16T07:01:30;101243.53;;;14.05;39.69
22000;BME280;11164;48.818;2.322;2023-05-16T07:03:56;101260.44;;;14.07;39.66
22000;BME280;11164;48.818;2.322;2023-05-16T07:06:21;101262.09;;;14.01;39.91
22000;BME280;11164;48.818;2.322;2023-05-16T07:08:46;101257.22;;;13.28;41.13
22000;BME280;11164;48.818;2.322;2023-05-16T07:11:12;101253.94;;;13.95;39.65
22000;BME280;11164;48.818;2.322;2023-05-16T07:13:37;101251.94;;;13.55;40.38
22000;BME280;11164;48.818;2.322;2023-05-16T07:16:02;101261.88;;;13.96;39.94
22000;BME280;11164;48.818;2.322;2023-05-16T07:18:28;101245.88;;;14.35;39.22
22000;BME280;11164;48.818;2.322;2023-05-16T07:20:53;101270.06;;;14.76;38.84
22000;BME280;11164;48.818;2.322;2023-05-16T07:23:19;101278.03;;;14.65;38.99
22000;BME280;11164;48.818;2.322;2023-05-16T07:25:44;101269.88;;;15.05;38.38
22000;BME280;11164;48.818;2.322;2023-05-16T07:28:10;101281.78;;;14.30;39.68
22000;BME280;11164;48.818;2.322;2023-05-16T07:30:35;101279.91;;;14.71;38.87
22000;BME280;11164;48.818;2.322;2023-05-16T07:33:00;101279.78;;;15.44;37.76
22000;BME280;11164;48.818;2.322;2023-05-16T07:35:26;101276.00;;;15.59;37.47
22000;BME280;11164;48.818;2.322;2023-05-16T07:37:51;101291.59;;;14.71;39.00
22000;BME280;11164;48.818;2.322;2023-05-16T07:40:17;101285.03;;;13.92;40.14
22000;BME280;11164;48.818;2.322;2023-05-16T07:42:43;101281.38;;;14.53;38.81
22000;BME280;11164;48.818;2.322;2023-05-16T07:45:08;101281.78;;;14.77;38.42
22000;BME280;11164;48.818;2.322;2023-05-16T07:47:34;101282.84;;;15.03;37.91
22000;BME280;11164;48.818;2.322;2023-05-16T07:49:59;101283.25;;;14.46;38.88
22000;BME280;11164;48.818;2.322;2023-05-16T07:52:25;101286.59;;;14.68;38.66
22000;BME280;11164;48.818;2.322;2023-05-16T07:54:50;101275.13;;;14.93;38.35
22000;BME280;11164;48.818;2.322;2023-05-16T07:57:16;101276.72;;;14.07;39.68
22000;BME280;11164;48.818;2.322;2023-05-16T07:59:42;101266.78;;;14.94;38.20
22000;BME280;11164;48.818;2.322;2023-05-16T08:02:08;101273.44;;;14.52;38.77
22000;BME280;11164;48.818;2.322;2023-05-16T08:04:34;101274.06;;;14.80;38.14
22000;BME280;11164;48.818;2.322;2023-05-16T08:07:00;101278.25;;;14.83;38.08
22000;BME280;11164;48.818;2.322;2023-05-16T08:09:25;101279.50;;;14.67;38.07
22000;BME280;11164;48.818;2.322;2023-05-16T08:11:50;101272.81;;;14.83;37.70
22000;BME280;11164;48.818;2.322;2023-05-16T08:14:16;101278.81;;;15.25;36.93
22000;BME280;11164;48.818;2.322;2023-05-16T08:16:41;101280.69;;;15.18;37.16
22000;BME280;11164;48.818;2.322;2023-05-16T08:19:06;101279.88;;;15.17;37.12
22000;BME280;11164;48.818;2.322;2023-05-16T08:21:32;101272.84;;;15.62;35.97
22000;BME280;11164;48.818;2.322;2023-05-16T08:23:58;101267.44;;;16.32;35.52
22000;BME280;11164;48.818;2.322;2023-05-16T08:26:24;101279.88;;;16.78;35.16
22000;BME280;11164;48.818;2.322;2023-05-16T08:28:49;101278.00;;;16.97;35.41
22000;BME280;11164;48.818;2.322;2023-05-16T08:31:14;101286.13;;;16.79;35.59
22000;BME280;11164;48.818;2.322;2023-05-16T08:33:40;101274.34;;;16.60;35.79
22000;BME280;11164;48.818;2.322;2023-05-16T08:36:05;101285.25;;;16.28;36.08
22000;BME280;11164;48.818;2.322;2023-05-16T08:38:31;101285.78;;;16.11;36.32
22000;BME280;11164;48.818;2.322;2023-05-16T08:40:56;101274.94;;;16.05;36.04
22000;BME280;11164;48.818;2.322;2023-05-16T08:43:22;101275.75;;;14.95;37.36
22000;BME280;11164;48.818;2.322;2023-05-16T08:45:47;101275.41;;;15.50;36.36
22000;BME280;11164;48.818;2.322;2023-05-16T08:48:15;101284.91;;;14.74;37.01
22000;BME280;11164;48.818;2.322;2023-05-16T08:50:41;101284.91;;;15.14;36.60
22000;BME280;11164;48.818;2.322;2023-05-16T08:53:08;101274.00;;;15.34;36.17
22000;BME280;11164;48.818;2.322;2023-05-16T08:55:36;101280.16;;;15.61;35.77
22000;BME280;11164;48.818;2.322;2023-05-16T08:58:02;101275.28;;;15.77;35.51
22000;BME280;11164;48.818;2.322;2023-05-16T09:00:28;101282.41;;;16.16;34.92
22000;BME280;11164;48.818;2.322;2023-05-16T09:02:54;101285.78;;;16.11;35.04
22000;BME280;11164;48.818;2.322;2023-05-16T09:05:21;101278.03;;;15.77;34.79
22000;BME280;11164;48.818;2.322;2023-05-16T09:07:47;101278.34;;;15.93;35.04
22000;BME280;11164;48.818;2.322;2023-05-16T09:10:12;101265.22;;;16.47;34.68
22000;BME280;11164;48.818;2.322;2023-05-16T09:12:39;101289.63;;;16.29;34.56
22000;BME280;11164;48.818;2.322;2023-05-16T09:15:06;101284.06;;;16.49;34.39
22000;BME280;11164;48.818;2.322;2023-05-16T09:17:36;101292.63;;;16.78;33.71
22000;BME280;11164;48.818;2.322;2023-05-16T09:20:15;101287.56;;;16.56;32.19
22000;BME280;11164;48.818;2.322;2023-05-16T09:22:51;101288.03;;;16.21;31.42
22000;BME280;11164;48.818;2.322;2023-05-16T09:25:17;101291.31;;;16.55;34.05
22000;BME280;11164;48.818;2.322;2023-05-16T09:27:42;101283.47;;;16.08;34.54
22000;BME280;11164;48.818;2.322;2023-05-16T09:30:13;101290.88;;;16.33;32.71
22000;BME280;11164;48.818;2.322;2023-05-16T09:32:42;101277.78;;;16.17;33.80
22000;BME280;11164;48.818;2.322;2023-05-16T09:35:14;101293.44;;;16.53;33.45
22000;BME280;11164;48.818;2.322;2023-05-16T09:37:47;101279.91;;;16.15;33.91
22000;BME280;11164;48.818;2.322;2023-05-16T09:40:13;101278.50;;;16.37;33.86
22000;BME280;11164;48.818;2.322;2023-05-16T09:42:41;101272.84;;;16.89;32.72
22000;BME280;11164;48.818;2.322;2023-05-16T09:45:11;101277.09;;;16.85;32.29
22000;BME280;11164;48.818;2.322;2023-05-16T09:47:37;101276.59;;;15.61;34.61
22000;BME280;11164;48.818;2.322;2023-05-16T09:50:10;101290.03;;;16.01;33.87
22000;BME280;11164;48.818;2.322;2023-05-16T09:52:36;101289.88;;;15.89;34.03
22000;BME280;11164;48.818;2.322;2023-05-16T09:57:30;101284.53;;;16.39;33.41
22000;BME280;11164;48.818;2.322;2023-05-16T09:59:58;101279.81;;;16.28;33.16
22000;BME280;11164;48.818;2.322;2023-05-16T10:02:25;101279.44;;;17.00;32.47
22000;BME280;11164;48.818;2.322;2023-05-16T10:04:51;101276.75;;;16.43;33.08
22000;BME280;11164;48.818;2.322;2023-05-16T10:07:16;101298.78;;;16.92;32.47
22000;BME280;11164;48.818;2.322;2023-05-16T10:09:43;101281.38;;;16.42;32.96
22000;BME280;11164;48.818;2.322;2023-05-16T10:12:10;101290.75;;;16.78;32.32
22000;BME280;11164;48.818;2.322;2023-05-16T10:14:38;101262.97;;;16.69;31.95
22000;BME280;11164;48.818;2.322;2023-05-16T10:17:06;101277.28;;;16.33;32.71
22000;BME280;11164;48.818;2.322;2023-05-16T10:19:35;101270.31;;;17.13;31.41
22000;BME280;11164;48.818;2.322;2023-05-16T10:22:03;101276.56;;;16.95;32.05
22000;BME280;11164;48.818;2.322;2023-05-16T10:24:43;101273.38;;;16.98;28.05
22000;BME280;11164;48.818;2.322;2023-05-16T10:27:11;101285.66;;;16.57;31.87
22000;BME280;11164;48.818;2.322;2023-05-16T10:29:38;101270.38;;;17.06;31.44
22000;BME280;11164;48.818;2.322;2023-05-16T10:32:04;101268.31;;;17.38;30.78
22000;BME280;11164;48.818;2.322;2023-05-16T10:34:31;101273.63;;;17.15;31.37
22000;BME280;11164;48.818;2.322;2023-05-16T10:36:58;101269.22;;;16.95;31.34
22000;BME280;11164;48.818;2.322;2023-05-16T10:39:23;101273.69;;;17.45;30.74
22000;BME280;11164;48.818;2.322;2023-05-16T10:41:50;101270.91;;;17.70;30.41
22000;BME280;11164;48.818;2.322;2023-05-16T10:44:16;101262.13;;;17.13;31.24
22000;BME280;11164;48.818;2.322;2023-05-16T10:46:42;101278.00;;;17.16;31.09
22000;BME280;11164;48.818;2.322;2023-05-16T10:49:24;101261.97;;;17.44;29.32
22000;BME280;11164;48.818;2.322;2023-05-16T10:52:11;101274.16;;;17.42;28.95
22000;BME280;11164;48.818;2.322;2023-05-16T10:54:42;101292.13;;;17.50;30.16
22000;BME280;11164;48.818;2.322;2023-05-16T10:57:16;101282.88;;;17.32;31.01
22000;BME280;11164;48.818;2.322;2023-05-16T10:59:50;101279.19;;;17.94;30.31
22000;BME280;11164;48.818;2.322;2023-05-16T11:02:31;101280.00;;;17.27;26.97
22000;BME280;11164;48.818;2.322;2023-05-16T11:04:59;101296.91;;;16.67;31.34
22000;BME280;11164;48.818;2.322;2023-05-16T11:07:31;101275.69;;;16.76;29.66
22000;BME280;11164;48.818;2.322;2023-05-16T11:10:04;101280.81;;;17.28;29.23
22000;BME280;11164;48.818;2.322;2023-05-16T11:12:50;101260.66;;;17.84;27.39
22000;BME280;11164;48.818;2.322;2023-05-16T11:15:34;101265.13;;;17.78;27.88
22000;BME280;11164;48.818;2.322;2023-05-16T11:18:13;101261.44;;;17.54;28.18
22000;BME280;11164;48.818;2.322;2023-05-16T11:20:39;101267.66;;;17.61;30.07
22000;BME280;11164;48.818;2.322;2023-05-16T11:23:21;101276.22;;;17.10;29.05
22000;BME280;11164;48.818;2.322;2023-05-16T11:25:51;101270.00;;;17.02;30.72
22000;BME280;11164;48.818;2.322;2023-05-16T11:28:18;101272.63;;;16.91;30.55
22000;BME280;11164;48.818;2.322;2023-05-16T11:30:46;101266.91;;;17.36;30.01
22000;BME280;11164;48.818;2.322;2023-05-16T11:33:13;101258.81;;;17.96;29.26
22000;BME280;11164;48.818;2.322;2023-05-16T11:35:38;101256.78;;;18.34;28.81
22000;BME280;11164;48.818;2.322;2023-05-16T11:38:04;101266.81;;;18.22;29.37
22000;BME280;11164;48.818;2.322;2023-05-16T11:40:29;101260.03;;;17.52;30.03
22000;BME280;11164;48.818;2.322;2023-05-16T11:42:59;101271.16;;;17.50;29.80
22000;BME280;11164;48.818;2.322;2023-05-16T11:45:27;101265.69;;;17.69;29.54
22000;BME280;11164;48.818;2.322;2023-05-16T11:47:53;101262.84;;;18.06;28.90
22000;BME280;11164;48.818;2.322;2023-05-16T11:50:20;101260.53;;;18.21;29.04
22000;BME280;11164;48.818;2.322;2023-05-16T11:52:49;101250.66;;;18.50;28.43
22000;BME280;11164;48.818;2.322;2023-05-16T11:55:19;101248.59;;;17.73;29.17
22000;BME280;11164;48.818;2.322;2023-05-16T11:57:46;101253.44;;;17.90;28.92
22000;BME280;11164;48.818;2.322;2023-05-16T12:00:17;101253.63;;;18.07;28.85
22000;BME280;11164;48.818;2.322;2023-05-16T12:02:44;101246.34;;;18.43;28.43
22000;BME280;11164;48.818;2.322;2023-05-16T12:05:12;101248.72;;;18.51;27.94
22000;BME280;11164;48.818;2.322;2023-05-16T12:07:38;101254.53;;;18.43;28.22
22000;BME280;11164;48.818;2.322;2023-05-16T12:10:11;101238.16;;;18.54;28.11
22000;BME280;11164;48.818;2.322;2023-05-16T12:12:39;101240.78;;;18.61;28.16
22000;BME280;11164;48.818;2.322;2023-05-16T12:15:06;101244.22;;;18.92;27.46
22000;BME280;11164;48.818;2.322;2023-05-16T12:17:36;101235.09;;;18.86;27.66
22000;BME280;11164;48.818;2.322;2023-05-16T12:20:03;101239.50;;;18.64;28.10
22000;BME280;11164;48.818;2.322;2023-05-16T12:22:38;101255.16;;;18.92;27.34
22000;BME280;11164;48.818;2.322;2023-05-16T12:25:23;101243.53;;;18.61;24.97
22000;BME280;11164;48.818;2.322;2023-05-16T12:27:52;101241.25;;;18.34;28.35
22000;BME280;11164;48.818;2.322;2023-05-16T12:30:25;101233.16;;;19.10;27.31
22000;BME280;11164;48.818;2.322;2023-05-16T12:33:07;101235.31;;;19.90;24.13
22000;BME280;11164;48.818;2.322;2023-05-16T12:35:34;101222.44;;;20.36;25.95
22000;BME280;11164;48.818;2.322;2023-05-16T12:38:05;101237.44;;;20.33;25.85
22000;BME280;11164;48.818;2.322;2023-05-16T12:40:31;101232.47;;;20.81;25.49
22000;BME280;11164;48.818;2.322;2023-05-16T12:42:57;101229.31;;;20.21;26.36
22000;BME280;11164;48.818;2.322;2023-05-16T12:45:22;101233.03;;;19.29;27.43
22000;BME280;11164;48.818;2.322;2023-05-16T12:47:48;101217.13;;;19.83;26.45
22000;BME280;11164;48.818;2.322;2023-05-16T12:50:15;101237.63;;;20.43;25.96
22000;BME280;11164;48.818;2.322;2023-05-16T12:52:46;101216.63;;;21.05;24.38
22000;BME280;11164;48.818;2.322;2023-05-16T12:55:13;101232.75;;;21.02;25.41
22000;BME280;11164;48.818;2.322;2023-05-16T12:57:41;101210.38;;;21.10;25.08
22000;BME280;11164;48.818;2.322;2023-05-16T13:00:07;101227.41;;;20.05;26.54
22000;BME280;11164;48.818;2.322;2023-05-16T13:02:34;101232.13;;;20.27;25.98
22000;BME280;11164;48.818;2.322;2023-05-16T13:04:59;101219.28;;;20.61;25.78